WXM80 ListenWXM80 Stop

You find our weather info also at:

UK Metoffice

WeatherCloud

Weather Underground

Northeastern Weather Network

AWEKAS

Citizen Weather Observer Program (CWOP)

HAMweather, WeatherForYou, PWS Weather


Weather Underground History page Text

Daily Summary for April 2, 2017 Units:  Both    English   Metric
« Previous Day
Next Day »
Daily Weekly Monthly Yearly Custom
  High: Low: Average:
Temperature: 63.0 °F /  17.2 °C 40.2 °F /  4.6 °C 49.6 °F /  9.8 °C
Dew Point: 40.2 °F /  4.6 °C 33.4 °F /  0.8 °C 36.5 °F /  2.5 °C
Humidity: 89 % 34 % 64 %
Wind Speed: 9.0 mph /  14.5 km/h - 2.9 mph /  4.7 km/h
Wind Gust: 13.0 mph /  20.9 km/h - -
Wind:- - WNW
Pressure: 30.10 in /  1019.2 hPa 29.98 in /  1015.1 hPa -
Precipitation: 0.04 in /  1.02 mm    
Historical Graphs
 
 
Tabular Data for April 2, 2017
Time Temperature Dew Point Pressure Wind Wind Speed Wind Gust Humidity Rainfall Rate (Hourly)
00:04 41.4 °F /  5.2 °C 37.5 °F /  3.1 °C 30.00 in /  1015.8 hPa NW 0.5 mph /  0.8 km/h 1.2 mph /  1.9 km/h 86 % 0.01 in /  0.25 mm
00:09 41.4 °F /  5.2 °C 37.5 °F /  3.1 °C 30.00 in /  1015.8 hPa NW 0.2 mph /  0.3 km/h 1.2 mph /  1.9 km/h 86 % 0.01 in /  0.25 mm
00:14 41.4 °F /  5.2 °C 37.5 °F /  3.1 °C 30.00 in /  1015.8 hPa NW 0.7 mph /  1.1 km/h 2.3 mph /  3.7 km/h 86 % 0.01 in /  0.25 mm
00:19 41.3 °F /  5.2 °C 37.7 °F /  3.2 °C 30.01 in /  1016.1 hPa NNW 0.3 mph /  0.5 km/h 1.2 mph /  1.9 km/h 87 % 0.01 in /  0.25 mm
00:24 41.3 °F /  5.2 °C 37.7 °F /  3.2 °C 30.01 in /  1016.1 hPa NW 0.5 mph /  0.8 km/h 1.2 mph /  1.9 km/h 87 % 0.01 in /  0.25 mm
00:29 41.2 °F /  5.1 °C 37.6 °F /  3.1 °C 30.00 in /  1015.8 hPa Calm   2.3 mph /  3.7 km/h 87 % 0.01 in /  0.25 mm
00:34 41.2 °F /  5.1 °C 37.6 °F /  3.1 °C 30.01 in /  1016.1 hPa NW 0.1 mph /  0.2 km/h 1.2 mph /  1.9 km/h 87 % 0.01 in /  0.25 mm
00:39 41.2 °F /  5.1 °C 37.6 °F /  3.1 °C 30.01 in /  1016.1 hPa Calm     87 % 0.01 in /  0.25 mm
00:44 41.1 °F /  5.1 °C 37.5 °F /  3.1 °C 30.01 in /  1016.1 hPa Calm     87 % 0.01 in /  0.25 mm
00:49 41.1 °F /  5.1 °C 37.5 °F /  3.1 °C 30.01 in /  1016.1 hPa Calm     87 % 0.01 in /  0.25 mm
00:54 41.1 °F /  5.1 °C 37.5 °F /  3.1 °C 30.01 in /  1016.1 hPa Calm     87 % 0.00 in /  0 mm
00:59 41.0 °F /  5 °C 37.4 °F /  3 °C 30.00 in /  1015.8 hPa Calm     87 % 0.00 in /  0 mm
01:04 41.0 °F /  5 °C 37.4 °F /  3 °C 30.01 in /  1016.1 hPa Calm     87 % 0.01 in /  0.25 mm
01:09 41.0 °F /  5 °C 37.4 °F /  3 °C 30.00 in /  1015.8 hPa Calm     87 % 0.01 in /  0.25 mm
01:14 41.0 °F /  5 °C 37.4 °F /  3 °C 30.01 in /  1016.1 hPa NW 0.1 mph /  0.2 km/h 2.3 mph /  3.7 km/h 87 % 0.01 in /  0.25 mm
01:19 41.0 °F /  5 °C 37.4 °F /  3 °C 30.01 in /  1016.1 hPa NW 0.1 mph /  0.2 km/h 2.3 mph /  3.7 km/h 87 % 0.01 in /  0.25 mm
01:25 41.0 °F /  5 °C 37.4 °F /  3 °C 30.00 in /  1015.8 hPa NW 0.6 mph /  1 km/h 2.3 mph /  3.7 km/h 87 % 0.01 in /  0.25 mm
01:30 41.0 °F /  5 °C 37.4 °F /  3 °C 30.00 in /  1015.8 hPa Calm     87 % 0.01 in /  0.25 mm
01:35 41.0 °F /  5 °C 37.7 °F /  3.2 °C 30.01 in /  1016.1 hPa WNW 0.4 mph /  0.6 km/h 1.2 mph /  1.9 km/h 88 % 0.01 in /  0.25 mm
01:40 41.0 °F /  5 °C 37.4 °F /  3 °C 30.01 in /  1016.1 hPa WNW 0.9 mph /  1.4 km/h 3.5 mph /  5.6 km/h 87 % 0.01 in /  0.25 mm
01:45 41.0 °F /  5 °C 37.4 °F /  3 °C 30.01 in /  1016.1 hPa WNW 1.6 mph /  2.6 km/h 3.5 mph /  5.6 km/h 87 % 0.01 in /  0.25 mm
01:50 41.0 °F /  5 °C 37.4 °F /  3 °C 30.01 in /  1016.1 hPa West 2.5 mph /  4 km/h 4.6 mph /  7.4 km/h 87 % 0.01 in /  0.25 mm
01:55 41.1 °F /  5.1 °C 37.5 °F /  3.1 °C 30.00 in /  1015.8 hPa WNW 1.2 mph /  1.9 km/h 3.5 mph /  5.6 km/h 87 % 0.01 in /  0.25 mm
02:00 41.1 °F /  5.1 °C 37.5 °F /  3.1 °C 30.01 in /  1016.1 hPa NW 3.1 mph /  5 km/h 4.6 mph /  7.4 km/h 87 % 0.01 in /  0.25 mm
02:05 41.2 °F /  5.1 °C 37.3 °F /  2.9 °C 30.00 in /  1015.8 hPa WNW 2.4 mph /  3.9 km/h 4.6 mph /  7.4 km/h 86 % 0.00 in /  0 mm
02:10 41.2 °F /  5.1 °C 37.3 °F /  2.9 °C 30.00 in /  1015.8 hPa WNW 2.5 mph /  4 km/h 6.0 mph /  9.7 km/h 86 % 0.00 in /  0 mm
02:15 41.3 °F /  5.2 °C 37.4 °F /  3 °C 30.00 in /  1015.8 hPa WNW 1.8 mph /  2.9 km/h 3.5 mph /  5.6 km/h 86 % 0.00 in /  0 mm
02:20 41.3 °F /  5.2 °C 37.4 °F /  3 °C 30.00 in /  1015.8 hPa West 3.5 mph /  5.6 km/h 6.0 mph /  9.7 km/h 86 % 0.01 in /  0.25 mm
02:25 41.3 °F /  5.2 °C 37.4 °F /  3 °C 30.00 in /  1015.8 hPa WNW 1.0 mph /  1.6 km/h 2.0 mph /  3.2 km/h 86 % 0.01 in /  0.25 mm
02:30 41.3 °F /  5.2 °C 37.4 °F /  3 °C 30.00 in /  1015.8 hPa WNW 0.7 mph /  1.1 km/h 3.5 mph /  5.6 km/h 86 % 0.01 in /  0.25 mm
02:35 41.3 °F /  5.2 °C 37.4 °F /  3 °C 30.00 in /  1015.8 hPa WNW 0.6 mph /  1 km/h 3.5 mph /  5.6 km/h 86 % 0.01 in /  0.25 mm
02:40 41.3 °F /  5.2 °C 37.4 °F /  3 °C 30.00 in /  1015.8 hPa WNW 3.0 mph /  4.8 km/h 3.5 mph /  5.6 km/h 86 % 0.01 in /  0.25 mm
02:45 41.3 °F /  5.2 °C 37.4 °F /  3 °C 30.00 in /  1015.8 hPa WNW 1.7 mph /  2.7 km/h 3.5 mph /  5.6 km/h 86 % 0.01 in /  0.25 mm
02:50 41.3 °F /  5.2 °C 37.4 °F /  3 °C 30.00 in /  1015.8 hPa WNW 1.2 mph /  1.9 km/h 3.5 mph /  5.6 km/h 86 % 0.01 in /  0.25 mm
02:55 41.3 °F /  5.2 °C 37.4 °F /  3 °C 30.00 in /  1015.8 hPa NW 0.7 mph /  1.1 km/h 3.5 mph /  5.6 km/h 86 % 0.01 in /  0.25 mm
03:00 41.3 °F /  5.2 °C 37.4 °F /  3 °C 30.00 in /  1015.8 hPa WNW 1.6 mph /  2.6 km/h 3.5 mph /  5.6 km/h 86 % 0.01 in /  0.25 mm
03:05 41.3 °F /  5.2 °C 37.7 °F /  3.2 °C 30.01 in /  1016.1 hPa WNW 1.6 mph /  2.6 km/h 3.5 mph /  5.6 km/h 87 % 0.01 in /  0.25 mm
03:10 41.3 °F /  5.2 °C 37.4 °F /  3 °C 30.00 in /  1015.8 hPa WNW 2.1 mph /  3.4 km/h 4.0 mph /  6.4 km/h 86 % 0.01 in /  0.25 mm
03:15 41.3 °F /  5.2 °C 37.7 °F /  3.2 °C 30.00 in /  1015.8 hPa WNW 2.6 mph /  4.2 km/h 3.0 mph /  4.8 km/h 87 % 0.01 in /  0.25 mm
03:20 41.3 °F /  5.2 °C 37.4 °F /  3 °C 30.00 in /  1015.8 hPa West 1.5 mph /  2.4 km/h 3.5 mph /  5.6 km/h 86 % 0.00 in /  0 mm
03:25 41.3 °F /  5.2 °C 37.7 °F /  3.2 °C 30.00 in /  1015.8 hPa West 0.8 mph /  1.3 km/h 3.0 mph /  4.8 km/h 87 % 0.00 in /  0 mm
03:30 41.2 °F /  5.1 °C 37.6 °F /  3.1 °C 30.00 in /  1015.8 hPa West 0.5 mph /  0.8 km/h 3.5 mph /  5.6 km/h 87 % 0.00 in /  0 mm
03:35 41.2 °F /  5.1 °C 37.6 °F /  3.1 °C 30.01 in /  1016.1 hPa WNW 0.3 mph /  0.5 km/h 2.3 mph /  3.7 km/h 87 % 0.00 in /  0 mm
03:40 41.2 °F /  5.1 °C 37.6 °F /  3.1 °C 30.01 in /  1016.1 hPa WNW 1.2 mph /  1.9 km/h 5.0 mph /  8 km/h 87 % 0.00 in /  0 mm
03:45 41.2 °F /  5.1 °C 37.6 °F /  3.1 °C 30.01 in /  1016.1 hPa WNW 0.5 mph /  0.8 km/h 3.5 mph /  5.6 km/h 87 % 0.00 in /  0 mm
03:50 41.1 °F /  5.1 °C 37.5 °F /  3.1 °C 30.01 in /  1016.1 hPa WNW 0.2 mph /  0.3 km/h 2.3 mph /  3.7 km/h 87 % 0.00 in /  0 mm
03:55 41.1 °F /  5.1 °C 37.5 °F /  3.1 °C 30.00 in /  1015.8 hPa WNW 0.2 mph /  0.3 km/h 1.2 mph /  1.9 km/h 87 % 0.00 in /  0 mm
04:00 41.1 °F /  5.1 °C 37.5 °F /  3.1 °C 30.00 in /  1015.8 hPa WNW 1.7 mph /  2.7 km/h 3.5 mph /  5.6 km/h 87 % 0.00 in /  0 mm
04:06 41.1 °F /  5.1 °C 37.5 °F /  3.1 °C 30.01 in /  1016.1 hPa WNW 0.6 mph /  1 km/h 3.5 mph /  5.6 km/h 87 % 0.00 in /  0 mm
04:11 41.1 °F /  5.1 °C 37.5 °F /  3.1 °C 30.01 in /  1016.1 hPa WNW 1.6 mph /  2.6 km/h 5.8 mph /  9.3 km/h 87 % 0.00 in /  0 mm
04:16 41.0 °F /  5 °C 37.4 °F /  3 °C 30.01 in /  1016.1 hPa WNW 1.8 mph /  2.9 km/h 3.5 mph /  5.6 km/h 87 % 0.00 in /  0 mm
04:21 41.0 °F /  5 °C 37.4 °F /  3 °C 30.01 in /  1016.1 hPa West 0.2 mph /  0.3 km/h 3.5 mph /  5.6 km/h 87 % 0.00 in /  0 mm
04:26 40.9 °F /  4.9 °C 37.3 °F /  2.9 °C 30.02 in /  1016.5 hPa Calm   2.3 mph /  3.7 km/h 87 % 0.00 in /  0 mm
04:31 40.8 °F /  4.9 °C 37.2 °F /  2.9 °C 30.02 in /  1016.5 hPa WNW 0.2 mph /  0.3 km/h 2.3 mph /  3.7 km/h 87 % 0.00 in /  0 mm
04:36 40.7 °F /  4.8 °C 37.1 °F /  2.8 °C 30.02 in /  1016.5 hPa West 1.0 mph /  1.6 km/h 3.5 mph /  5.6 km/h 87 % 0.00 in /  0 mm
04:41 40.7 °F /  4.8 °C 37.1 °F /  2.8 °C 30.02 in /  1016.5 hPa WNW 1.7 mph /  2.7 km/h 4.0 mph /  6.4 km/h 87 % 0.00 in /  0 mm
04:46 40.5 °F /  4.7 °C 36.9 °F /  2.7 °C 30.02 in /  1016.5 hPa West 0.9 mph /  1.4 km/h 3.5 mph /  5.6 km/h 87 % 0.00 in /  0 mm
04:51 40.4 °F /  4.7 °C 36.8 °F /  2.7 °C 30.02 in /  1016.5 hPa West 2.2 mph /  3.5 km/h 3.5 mph /  5.6 km/h 87 % 0.00 in /  0 mm
04:56 40.4 °F /  4.7 °C 37.1 °F /  2.8 °C 30.02 in /  1016.5 hPa WNW 1.7 mph /  2.7 km/h 5.0 mph /  8 km/h 88 % 0.00 in /  0 mm
05:01 40.4 °F /  4.7 °C 37.1 °F /  2.8 °C 30.03 in /  1016.8 hPa West 2.4 mph /  3.9 km/h 4.0 mph /  6.4 km/h 88 % 0.00 in /  0 mm
05:06 40.3 °F /  4.6 °C 37.0 °F /  2.8 °C 30.03 in /  1016.8 hPa West 1.8 mph /  2.9 km/h 5.8 mph /  9.3 km/h 88 % 0.00 in /  0 mm
05:11 40.4 °F /  4.7 °C 37.4 °F /  3 °C 30.03 in /  1016.8 hPa West 1.4 mph /  2.3 km/h 3.5 mph /  5.6 km/h 89 % 0.00 in /  0 mm
05:16 40.4 °F /  4.7 °C 37.4 °F /  3 °C 30.03 in /  1016.8 hPa WNW 0.5 mph /  0.8 km/h 2.3 mph /  3.7 km/h 89 % 0.01 in /  0.25 mm
05:21 40.4 °F /  4.7 °C 37.4 °F /  3 °C 30.04 in /  1017.2 hPa WNW 2.1 mph /  3.4 km/h 3.5 mph /  5.6 km/h 89 % 0.01 in /  0.25 mm
05:26 40.4 °F /  4.7 °C 37.4 °F /  3 °C 30.03 in /  1016.8 hPa WSW 2.7 mph /  4.3 km/h 4.0 mph /  6.4 km/h 89 % 0.01 in /  0.25 mm
05:31 40.5 °F /  4.7 °C 37.5 °F /  3.1 °C 30.04 in /  1017.2 hPa West 1.8 mph /  2.9 km/h 3.5 mph /  5.6 km/h 89 % 0.01 in /  0.25 mm
05:36 40.5 °F /  4.7 °C 37.5 °F /  3.1 °C 30.04 in /  1017.2 hPa WNW 3.0 mph /  4.8 km/h 5.8 mph /  9.3 km/h 89 % 0.01 in /  0.25 mm
05:41 40.6 °F /  4.8 °C 37.6 °F /  3.1 °C 30.04 in /  1017.2 hPa West 1.3 mph /  2.1 km/h 3.5 mph /  5.6 km/h 89 % 0.01 in /  0.25 mm
05:46 40.6 °F /  4.8 °C 37.6 °F /  3.1 °C 30.04 in /  1017.2 hPa West 0.5 mph /  0.8 km/h 2.3 mph /  3.7 km/h 89 % 0.01 in /  0.25 mm
05:51 40.6 °F /  4.8 °C 37.3 °F /  2.9 °C 30.04 in /  1017.2 hPa WNW 1.1 mph /  1.8 km/h 3.5 mph /  5.6 km/h 88 % 0.01 in /  0.25 mm
05:56 40.7 °F /  4.8 °C 37.4 °F /  3 °C 30.04 in /  1017.2 hPa West 3.5 mph /  5.6 km/h 7.0 mph /  11.3 km/h 88 % 0.01 in /  0.25 mm
06:01 40.7 °F /  4.8 °C 37.4 °F /  3 °C 30.05 in /  1017.5 hPa West 2.6 mph /  4.2 km/h 4.6 mph /  7.4 km/h 88 % 0.01 in /  0.25 mm
06:06 40.7 °F /  4.8 °C 37.1 °F /  2.8 °C 30.05 in /  1017.5 hPa WNW 2.7 mph /  4.3 km/h 4.6 mph /  7.4 km/h 87 % 0.01 in /  0.25 mm
06:07 40.7 °F /  4.8 °C 37.1 °F /  2.8 °C 30.05 in /  1017.5 hPa WNW 1.6 mph /  2.6 km/h 5.0 mph /  8 km/h 87 % 0.01 in /  0.25 mm
06:12 40.7 °F /  4.8 °C 37.1 °F /  2.8 °C 30.05 in /  1017.5 hPa West 3.5 mph /  5.6 km/h 8.1 mph /  13 km/h 87 % 0.01 in /  0.25 mm
06:17 40.7 °F /  4.8 °C 36.8 °F /  2.7 °C 30.06 in /  1017.8 hPa WNW 3.0 mph /  4.8 km/h 7.0 mph /  11.3 km/h 86 % 0.00 in /  0 mm
06:22 40.6 °F /  4.8 °C 36.7 °F /  2.6 °C 30.06 in /  1017.8 hPa WNW 4.6 mph /  7.4 km/h 9.2 mph /  14.8 km/h 86 % 0.00 in /  0 mm
06:27 40.5 °F /  4.7 °C 36.6 °F /  2.6 °C 30.06 in /  1017.8 hPa NW 2.6 mph /  4.2 km/h 5.8 mph /  9.3 km/h 86 % 0.00 in /  0 mm
06:33 40.4 °F /  4.7 °C 36.5 °F /  2.5 °C 30.07 in /  1018.2 hPa WNW 2.9 mph /  4.7 km/h 6.9 mph /  11.1 km/h 86 % 0.00 in /  0 mm
06:38 40.3 °F /  4.6 °C 36.4 °F /  2.4 °C 30.07 in /  1018.2 hPa WNW 5.5 mph /  8.9 km/h 9.0 mph /  14.5 km/h 86 % 0.00 in /  0 mm
06:43 40.2 °F /  4.6 °C 36.1 °F /  2.3 °C 30.07 in /  1018.2 hPa West 4.1 mph /  6.6 km/h 5.8 mph /  9.3 km/h 85 % 0.00 in /  0 mm
06:48 40.2 °F /  4.6 °C 36.1 °F /  2.3 °C 30.08 in /  1018.5 hPa West 5.8 mph /  9.3 km/h 9.2 mph /  14.8 km/h 85 % 0.00 in /  0 mm
06:53 40.2 °F /  4.6 °C 35.8 °F /  2.1 °C 30.08 in /  1018.5 hPa WNW 5.7 mph /  9.2 km/h 11.5 mph /  18.5 km/h 84 % 0.00 in /  0 mm
06:58 40.2 °F /  4.6 °C 35.8 °F /  2.1 °C 30.08 in /  1018.5 hPa WNW 4.6 mph /  7.4 km/h 5.8 mph /  9.3 km/h 84 % 0.00 in /  0 mm
07:03 40.3 °F /  4.6 °C 35.5 °F /  1.9 °C 30.08 in /  1018.5 hPa WNW 4.8 mph /  7.7 km/h 9.2 mph /  14.8 km/h 83 % 0.00 in /  0 mm
07:08 40.4 °F /  4.7 °C 35.6 °F /  2 °C 30.09 in /  1018.8 hPa NW 2.0 mph /  3.2 km/h 4.6 mph /  7.4 km/h 83 % 0.00 in /  0 mm
07:13 40.5 °F /  4.7 °C 35.7 °F /  2.1 °C 30.09 in /  1018.8 hPa WNW 4.4 mph /  7.1 km/h 6.0 mph /  9.7 km/h 83 % 0.00 in /  0 mm
07:18 40.6 °F /  4.8 °C 35.8 °F /  2.1 °C 30.09 in /  1018.8 hPa WNW 2.4 mph /  3.9 km/h 6.0 mph /  9.7 km/h 83 % 0.00 in /  0 mm
07:23 40.7 °F /  4.8 °C 35.9 °F /  2.2 °C 30.09 in /  1018.8 hPa WNW 4.6 mph /  7.4 km/h 8.1 mph /  13 km/h 83 % 0.00 in /  0 mm
07:28 40.7 °F /  4.8 °C 35.9 °F /  2.2 °C 30.09 in /  1018.8 hPa NNW 4.7 mph /  7.6 km/h 8.1 mph /  13 km/h 83 % 0.00 in /  0 mm
07:33 40.8 °F /  4.9 °C 36.0 °F /  2.2 °C 30.09 in /  1018.8 hPa WNW 2.4 mph /  3.9 km/h 3.5 mph /  5.6 km/h 83 % 0.00 in /  0 mm
07:38 40.9 °F /  4.9 °C 36.1 °F /  2.3 °C 30.09 in /  1018.8 hPa NNW 2.8 mph /  4.5 km/h 5.8 mph /  9.3 km/h 83 % 0.00 in /  0 mm
07:43 41.0 °F /  5 °C 36.2 °F /  2.3 °C 30.10 in /  1019.2 hPa WNW 1.9 mph /  3.1 km/h 6.9 mph /  11.1 km/h 83 % 0.00 in /  0 mm
07:48 41.1 °F /  5.1 °C 36.3 °F /  2.4 °C 30.09 in /  1018.8 hPa NW 3.8 mph /  6.1 km/h 4.6 mph /  7.4 km/h 83 % 0.00 in /  0 mm
07:53 41.3 °F /  5.2 °C 36.5 °F /  2.5 °C 30.09 in /  1018.8 hPa NW 3.2 mph /  5.1 km/h 4.0 mph /  6.4 km/h 83 % 0.00 in /  0 mm
07:58 41.5 °F /  5.3 °C 36.7 °F /  2.6 °C 30.09 in /  1018.8 hPa WNW 1.9 mph /  3.1 km/h 5.0 mph /  8 km/h 83 % 0.00 in /  0 mm
08:03 41.8 °F /  5.4 °C 37.0 °F /  2.8 °C 30.09 in /  1018.8 hPa NW 2.4 mph /  3.9 km/h 5.8 mph /  9.3 km/h 83 % 0.00 in /  0 mm
08:08 42.0 °F /  5.6 °C 37.2 °F /  2.9 °C 30.09 in /  1018.8 hPa NW 4.4 mph /  7.1 km/h 5.0 mph /  8 km/h 83 % 0.00 in /  0 mm
08:13 42.4 °F /  5.8 °C 37.6 °F /  3.1 °C 30.09 in /  1018.8 hPa NW 2.3 mph /  3.7 km/h 4.6 mph /  7.4 km/h 83 % 0.00 in /  0 mm
08:18 42.6 °F /  5.9 °C 37.5 °F /  3.1 °C 30.09 in /  1018.8 hPa NW 2.1 mph /  3.4 km/h 3.5 mph /  5.6 km/h 82 % 0.00 in /  0 mm
08:23 42.9 °F /  6.1 °C 37.8 °F /  3.2 °C 30.09 in /  1018.8 hPa NW 4.8 mph /  7.7 km/h 5.8 mph /  9.3 km/h 82 % 0.00 in /  0 mm
08:28 43.2 °F /  6.2 °C 37.8 °F /  3.2 °C 30.09 in /  1018.8 hPa WNW 4.1 mph /  6.6 km/h 8.0 mph /  12.9 km/h 81 % 0.00 in /  0 mm
08:29 43.3 °F /  6.3 °C 37.5 °F /  3.1 °C 30.10 in /  1019.2 hPa WNW 4.4 mph /  7.1 km/h 8.1 mph /  13 km/h 80 % 0.00 in /  0 mm
08:34 43.4 °F /  6.3 °C 37.6 °F /  3.1 °C 30.09 in /  1018.8 hPa NW 3.8 mph /  6.1 km/h 8.1 mph /  13 km/h 80 % 0.00 in /  0 mm
08:39 43.5 °F /  6.4 °C 37.7 °F /  3.2 °C 30.09 in /  1018.8 hPa WNW 3.3 mph /  5.3 km/h 4.6 mph /  7.4 km/h 80 % 0.00 in /  0 mm
08:44 43.6 °F /  6.4 °C 37.8 °F /  3.2 °C 30.10 in /  1019.2 hPa NW 2.0 mph /  3.2 km/h 4.6 mph /  7.4 km/h 80 % 0.00 in /  0 mm
08:50 43.7 °F /  6.5 °C 37.9 °F /  3.3 °C 30.09 in /  1018.8 hPa WNW 0.4 mph /  0.6 km/h 3.5 mph /  5.6 km/h 80 % 0.00 in /  0 mm
08:55 44.1 °F /  6.7 °C 38.3 °F /  3.5 °C 30.09 in /  1018.8 hPa West 5.2 mph /  8.4 km/h 5.8 mph /  9.3 km/h 80 % 0.00 in /  0 mm
09:00 44.5 °F /  6.9 °C 38.4 °F /  3.6 °C 30.09 in /  1018.8 hPa WNW 1.9 mph /  3.1 km/h 4.6 mph /  7.4 km/h 79 % 0.00 in /  0 mm
09:05 44.9 °F /  7.2 °C 38.8 °F /  3.8 °C 30.09 in /  1018.8 hPa WNW 2.1 mph /  3.4 km/h 4.0 mph /  6.4 km/h 79 % 0.00 in /  0 mm
09:10 45.1 °F /  7.3 °C 38.6 °F /  3.7 °C 30.09 in /  1018.8 hPa NNW 2.0 mph /  3.2 km/h 3.5 mph /  5.6 km/h 78 % 0.00 in /  0 mm
09:15 45.4 °F /  7.4 °C 38.6 °F /  3.7 °C 30.09 in /  1018.8 hPa WNW 6.0 mph /  9.7 km/h 8.1 mph /  13 km/h 77 % 0.00 in /  0 mm
09:20 45.6 °F /  7.6 °C 38.8 °F /  3.8 °C 30.09 in /  1018.8 hPa WNW 4.3 mph /  6.9 km/h 5.8 mph /  9.3 km/h 77 % 0.00 in /  0 mm
09:25 45.7 °F /  7.6 °C 38.2 °F /  3.4 °C 30.09 in /  1018.8 hPa WNW 5.9 mph /  9.5 km/h 10.4 mph /  16.7 km/h 75 % 0.00 in /  0 mm
09:30 45.7 °F /  7.6 °C 37.9 °F /  3.3 °C 30.09 in /  1018.8 hPa NW 3.5 mph /  5.6 km/h 8.1 mph /  13 km/h 74 % 0.00 in /  0 mm
09:35 46.0 °F /  7.8 °C 38.5 °F /  3.6 °C 30.09 in /  1018.8 hPa WNW 3.7 mph /  6 km/h 10.0 mph /  16.1 km/h 75 % 0.00 in /  0 mm
09:40 46.3 °F /  7.9 °C 38.5 °F /  3.6 °C 30.09 in /  1018.8 hPa NNW 3.8 mph /  6.1 km/h 6.9 mph /  11.1 km/h 74 % 0.00 in /  0 mm
09:45 46.6 °F /  8.1 °C 38.1 °F /  3.4 °C 30.09 in /  1018.8 hPa NW 5.2 mph /  8.4 km/h 9.2 mph /  14.8 km/h 72 % 0.00 in /  0 mm
09:50 46.8 °F /  8.2 °C 38.2 °F /  3.4 °C 30.09 in /  1018.8 hPa West 2.9 mph /  4.7 km/h 4.6 mph /  7.4 km/h 72 % 0.00 in /  0 mm
09:55 47.2 °F /  8.4 °C 38.6 °F /  3.7 °C 30.09 in /  1018.8 hPa NNW 2.5 mph /  4 km/h 4.0 mph /  6.4 km/h 72 % 0.00 in /  0 mm
10:00 47.8 °F /  8.8 °C 39.2 °F /  4 °C 30.09 in /  1018.8 hPa NW 1.8 mph /  2.9 km/h 4.0 mph /  6.4 km/h 72 % 0.00 in /  0 mm
10:05 48.5 °F /  9.2 °C 39.2 °F /  4 °C 30.10 in /  1019.2 hPa West 4.0 mph /  6.4 km/h 6.0 mph /  9.7 km/h 70 % 0.00 in /  0 mm
10:10 48.7 °F /  9.3 °C 38.2 °F /  3.4 °C 30.10 in /  1019.2 hPa WNW 5.0 mph /  8 km/h 7.0 mph /  11.3 km/h 67 % 0.00 in /  0 mm
10:15 48.9 °F /  9.4 °C 38.8 °F /  3.8 °C 30.10 in /  1019.2 hPa WNW 3.2 mph /  5.1 km/h 4.6 mph /  7.4 km/h 68 % 0.00 in /  0 mm
10:20 49.1 °F /  9.5 °C 38.6 °F /  3.7 °C 30.10 in /  1019.2 hPa West 3.1 mph /  5 km/h 6.9 mph /  11.1 km/h 67 % 0.00 in /  0 mm
10:25 49.5 °F /  9.7 °C 39.0 °F /  3.9 °C 30.10 in /  1019.2 hPa WSW 2.0 mph /  3.2 km/h 3.5 mph /  5.6 km/h 67 % 0.00 in /  0 mm
10:31 49.5 °F /  9.7 °C 38.2 °F /  3.4 °C 30.09 in /  1018.8 hPa SW 4.9 mph /  7.9 km/h 9.2 mph /  14.8 km/h 65 % 0.00 in /  0 mm
10:36 49.4 °F /  9.7 °C 38.1 °F /  3.4 °C 30.10 in /  1019.2 hPa West 3.7 mph /  6 km/h 6.9 mph /  11.1 km/h 65 % 0.00 in /  0 mm
10:41 49.9 °F /  9.9 °C 39.8 °F /  4.3 °C 30.10 in /  1019.2 hPa West 3.4 mph /  5.5 km/h 5.8 mph /  9.3 km/h 68 % 0.00 in /  0 mm
10:46 50.3 °F /  10.2 °C 39.0 °F /  3.9 °C 30.09 in /  1018.8 hPa West 4.5 mph /  7.2 km/h 6.9 mph /  11.1 km/h 65 % 0.00 in /  0 mm
10:51 50.5 °F /  10.3 °C 38.4 °F /  3.6 °C 30.09 in /  1018.8 hPa NW 6.6 mph /  10.6 km/h 9.2 mph /  14.8 km/h 63 % 0.00 in /  0 mm
10:56 50.6 °F /  10.3 °C 38.1 °F /  3.4 °C 30.09 in /  1018.8 hPa West 4.9 mph /  7.9 km/h 11.5 mph /  18.5 km/h 62 % 0.00 in /  0 mm
11:01 50.9 °F /  10.5 °C 38.3 °F /  3.5 °C 30.09 in /  1018.8 hPa WNW 3.1 mph /  5 km/h 6.0 mph /  9.7 km/h 62 % 0.00 in /  0 mm
11:06 51.2 °F /  10.7 °C 38.2 °F /  3.4 °C 30.09 in /  1018.8 hPa West 5.4 mph /  8.7 km/h 8.1 mph /  13 km/h 61 % 0.00 in /  0 mm
11:11 51.2 °F /  10.7 °C 38.2 °F /  3.4 °C 30.09 in /  1018.8 hPa WNW 5.5 mph /  8.9 km/h 9.2 mph /  14.8 km/h 61 % 0.00 in /  0 mm
11:16 51.4 °F /  10.8 °C 38.0 °F /  3.3 °C 30.09 in /  1018.8 hPa WNW 5.4 mph /  8.7 km/h 8.1 mph /  13 km/h 60 % 0.00 in /  0 mm
11:17 51.5 °F /  10.8 °C 38.1 °F /  3.4 °C 30.09 in /  1018.8 hPa WNW 5.5 mph /  8.9 km/h 9.0 mph /  14.5 km/h 60 % 0.00 in /  0 mm
11:22 51.8 °F /  11 °C 39.2 °F /  4 °C 30.09 in /  1018.8 hPa West 2.9 mph /  4.7 km/h 5.8 mph /  9.3 km/h 62 % 0.00 in /  0 mm
11:27 52.9 °F /  11.6 °C 40.2 °F /  4.6 °C 30.08 in /  1018.5 hPa WSW 3.8 mph /  6.1 km/h 5.8 mph /  9.3 km/h 62 % 0.00 in /  0 mm
11:32 53.3 °F /  11.8 °C 39.8 °F /  4.3 °C 30.08 in /  1018.5 hPa West 3.6 mph /  5.8 km/h 6.9 mph /  11.1 km/h 60 % 0.00 in /  0 mm
11:37 53.9 °F /  12.2 °C 39.5 °F /  4.2 °C 30.08 in /  1018.5 hPa West 3.4 mph /  5.5 km/h 5.8 mph /  9.3 km/h 58 % 0.00 in /  0 mm
11:42 54.2 °F /  12.3 °C 38.8 °F /  3.8 °C 30.08 in /  1018.5 hPa SSW 5.7 mph /  9.2 km/h 10.4 mph /  16.7 km/h 56 % 0.00 in /  0 mm
11:47 54.6 °F /  12.6 °C 38.3 °F /  3.5 °C 30.08 in /  1018.5 hPa West 4.7 mph /  7.6 km/h 9.2 mph /  14.8 km/h 54 % 0.00 in /  0 mm
11:52 55.0 °F /  12.8 °C 39.1 °F /  3.9 °C 30.08 in /  1018.5 hPa WSW 4.8 mph /  7.7 km/h 8.1 mph /  13 km/h 55 % 0.00 in /  0 mm
11:57 55.4 °F /  13 °C 39.0 °F /  3.9 °C 30.08 in /  1018.5 hPa WSW 3.3 mph /  5.3 km/h 5.8 mph /  9.3 km/h 54 % 0.00 in /  0 mm
12:02 55.3 °F /  12.9 °C 38.0 °F /  3.3 °C 30.08 in /  1018.5 hPa West 5.8 mph /  9.3 km/h 11.5 mph /  18.5 km/h 52 % 0.00 in /  0 mm
12:07 55.1 °F /  12.8 °C 38.3 °F /  3.5 °C 30.07 in /  1018.2 hPa WSW 5.0 mph /  8 km/h 12.0 mph /  19.3 km/h 53 % 0.00 in /  0 mm
12:12 55.3 °F /  12.9 °C 38.4 °F /  3.6 °C 30.07 in /  1018.2 hPa SW 9.0 mph /  14.5 km/h 13.0 mph /  20.9 km/h 53 % 0.00 in /  0 mm
12:17 55.4 °F /  13 °C 39.0 °F /  3.9 °C 30.07 in /  1018.2 hPa SW 6.0 mph /  9.7 km/h 10.0 mph /  16.1 km/h 54 % 0.00 in /  0 mm
12:22 55.9 °F /  13.3 °C 38.5 °F /  3.6 °C 30.06 in /  1017.8 hPa WSW 7.0 mph /  11.3 km/h 13.0 mph /  20.9 km/h 52 % 0.00 in /  0 mm
12:27 56.2 °F /  13.4 °C 38.8 °F /  3.8 °C 30.06 in /  1017.8 hPa WSW 5.0 mph /  8 km/h 10.0 mph /  16.1 km/h 52 % 0.00 in /  0 mm
12:32 56.9 °F /  13.8 °C 38.9 °F /  3.8 °C 30.06 in /  1017.8 hPa SSW 2.1 mph /  3.4 km/h 8.1 mph /  13 km/h 51 % 0.00 in /  0 mm
12:37 57.2 °F /  14 °C 39.2 °F /  4 °C 30.06 in /  1017.8 hPa WSW 5.2 mph /  8.4 km/h 7.0 mph /  11.3 km/h 51 % 0.00 in /  0 mm
12:42 57.6 °F /  14.2 °C 38.0 °F /  3.3 °C 30.06 in /  1017.8 hPa WSW 6.7 mph /  10.8 km/h 10.4 mph /  16.7 km/h 48 % 0.00 in /  0 mm
12:47 58.0 °F /  14.4 °C 36.8 °F /  2.7 °C 30.05 in /  1017.5 hPa WNW 6.7 mph /  10.8 km/h 10.4 mph /  16.7 km/h 45 % 0.00 in /  0 mm
12:52 57.8 °F /  14.3 °C 38.2 °F /  3.4 °C 30.06 in /  1017.8 hPa WSW 2.5 mph /  4 km/h 10.4 mph /  16.7 km/h 48 % 0.00 in /  0 mm
12:57 57.9 °F /  14.4 °C 37.8 °F /  3.2 °C 30.05 in /  1017.5 hPa WSW 6.7 mph /  10.8 km/h 8.0 mph /  12.9 km/h 47 % 0.00 in /  0 mm
13:02 57.9 °F /  14.4 °C 38.3 °F /  3.5 °C 30.05 in /  1017.5 hPa WSW 7.0 mph /  11.3 km/h 12.0 mph /  19.3 km/h 48 % 0.00 in /  0 mm
13:07 57.8 °F /  14.3 °C 37.7 °F /  3.2 °C 30.05 in /  1017.5 hPa WSW 6.0 mph /  9.7 km/h 10.0 mph /  16.1 km/h 47 % 0.00 in /  0 mm
13:12 58.1 °F /  14.5 °C 38.0 °F /  3.3 °C 30.04 in /  1017.2 hPa SW 6.0 mph /  9.7 km/h 12.0 mph /  19.3 km/h 47 % 0.00 in /  0 mm
13:17 58.5 °F /  14.7 °C 38.3 °F /  3.5 °C 30.04 in /  1017.2 hPa WSW 3.0 mph /  4.8 km/h 8.0 mph /  12.9 km/h 47 % 0.00 in /  0 mm
13:22 58.7 °F /  14.8 °C 36.8 °F /  2.7 °C 30.04 in /  1017.2 hPa WSW 6.0 mph /  9.7 km/h 9.0 mph /  14.5 km/h 44 % 0.00 in /  0 mm
13:27 59.1 °F /  15.1 °C 37.8 °F /  3.2 °C 30.04 in /  1017.2 hPa WSW 5.0 mph /  8 km/h 9.0 mph /  14.5 km/h 45 % 0.00 in /  0 mm
13:32 59.6 °F /  15.3 °C 36.4 °F /  2.4 °C 30.04 in /  1017.2 hPa West 3.0 mph /  4.8 km/h 9.0 mph /  14.5 km/h 42 % 0.00 in /  0 mm
13:37 59.8 °F /  15.4 °C 34.7 °F /  1.5 °C 30.03 in /  1016.8 hPa WSW 6.0 mph /  9.7 km/h 12.0 mph /  19.3 km/h 39 % 0.00 in /  0 mm
13:42 60.0 °F /  15.6 °C 36.2 °F /  2.3 °C 30.03 in /  1016.8 hPa WNW 3.5 mph /  5.6 km/h 8.1 mph /  13 km/h 41 % 0.00 in /  0 mm
13:47 60.3 °F /  15.7 °C 35.9 °F /  2.2 °C 30.04 in /  1017.2 hPa West 1.2 mph /  1.9 km/h 8.1 mph /  13 km/h 40 % 0.00 in /  0 mm
13:52 60.7 °F /  15.9 °C 36.8 °F /  2.7 °C 30.04 in /  1017.2 hPa SW 7.6 mph /  12.2 km/h 8.0 mph /  12.9 km/h 41 % 0.00 in /  0 mm
13:57 60.8 °F /  16 °C 35.0 °F /  1.7 °C 30.03 in /  1016.8 hPa West 5.7 mph /  9.2 km/h 5.8 mph /  9.3 km/h 38 % 0.00 in /  0 mm
14:02 61.0 °F /  16.1 °C 35.8 °F /  2.1 °C 30.02 in /  1016.5 hPa SW 5.2 mph /  8.4 km/h 9.0 mph /  14.5 km/h 39 % 0.00 in /  0 mm
14:07 61.1 °F /  16.2 °C 37.2 °F /  2.9 °C 30.02 in /  1016.5 hPa West 4.3 mph /  6.9 km/h 6.9 mph /  11.1 km/h 41 % 0.00 in /  0 mm
14:12 61.3 °F /  16.3 °C 36.1 °F /  2.3 °C 30.02 in /  1016.5 hPa WSW 5.4 mph /  8.7 km/h 9.2 mph /  14.8 km/h 39 % 0.00 in /  0 mm
14:13 61.3 °F /  16.3 °C 35.5 °F /  1.9 °C 30.02 in /  1016.5 hPa West 6.6 mph /  10.6 km/h 9.2 mph /  14.8 km/h 38 % 0.00 in /  0 mm
14:18 60.7 °F /  15.9 °C 34.9 °F /  1.6 °C 30.02 in /  1016.5 hPa West 2.5 mph /  4 km/h 8.1 mph /  13 km/h 38 % 0.00 in /  0 mm
14:23 61.0 °F /  16.1 °C 38.3 °F /  3.5 °C 30.02 in /  1016.5 hPa West 1.0 mph /  1.6 km/h 4.6 mph /  7.4 km/h 43 % 0.00 in /  0 mm
14:28 61.4 °F /  16.3 °C 36.8 °F /  2.7 °C 30.02 in /  1016.5 hPa West 4.1 mph /  6.6 km/h 11.5 mph /  18.5 km/h 40 % 0.00 in /  0 mm
14:33 61.5 °F /  16.4 °C 34.3 °F /  1.3 °C 30.02 in /  1016.5 hPa WSW 6.7 mph /  10.8 km/h 10.4 mph /  16.7 km/h 36 % 0.00 in /  0 mm
14:38 61.2 °F /  16.2 °C 34.7 °F /  1.5 °C 30.02 in /  1016.5 hPa WSW 6.3 mph /  10.1 km/h 9.2 mph /  14.8 km/h 37 % 0.00 in /  0 mm
14:43 61.4 °F /  16.3 °C 36.2 °F /  2.3 °C 30.02 in /  1016.5 hPa SW 6.0 mph /  9.7 km/h 9.0 mph /  14.5 km/h 39 % 0.00 in /  0 mm
14:48 61.6 °F /  16.4 °C 35.1 °F /  1.7 °C 30.02 in /  1016.5 hPa NW 3.3 mph /  5.3 km/h 9.2 mph /  14.8 km/h 37 % 0.00 in /  0 mm
14:53 61.6 °F /  16.4 °C 35.1 °F /  1.7 °C 30.01 in /  1016.1 hPa NW 3.8 mph /  6.1 km/h 9.0 mph /  14.5 km/h 37 % 0.00 in /  0 mm
14:58 61.6 °F /  16.4 °C 34.4 °F /  1.3 °C 30.01 in /  1016.1 hPa NW 6.4 mph /  10.3 km/h 9.2 mph /  14.8 km/h 36 % 0.00 in /  0 mm
15:03 61.7 °F /  16.5 °C 34.5 °F /  1.4 °C 30.01 in /  1016.1 hPa SW 5.0 mph /  8 km/h 6.9 mph /  11.1 km/h 36 % 0.00 in /  0 mm
15:08 61.9 °F /  16.6 °C 34.6 °F /  1.4 °C 30.00 in /  1015.8 hPa West 6.6 mph /  10.6 km/h 11.5 mph /  18.5 km/h 36 % 0.00 in /  0 mm
15:13 62.1 °F /  16.7 °C 34.1 °F /  1.2 °C 30.00 in /  1015.8 hPa West 7.4 mph /  11.9 km/h 11.5 mph /  18.5 km/h 35 % 0.00 in /  0 mm
15:18 62.1 °F /  16.7 °C 34.1 °F /  1.2 °C 30.00 in /  1015.8 hPa WNW 3.8 mph /  6.1 km/h 6.9 mph /  11.1 km/h 35 % 0.00 in /  0 mm
15:23 62.2 °F /  16.8 °C 34.9 °F /  1.6 °C 30.00 in /  1015.8 hPa WNW 4.1 mph /  6.6 km/h 8.1 mph /  13 km/h 36 % 0.00 in /  0 mm
15:28 62.2 °F /  16.8 °C 33.5 °F /  0.8 °C 29.99 in /  1015.5 hPa WNW 4.7 mph /  7.6 km/h 8.1 mph /  13 km/h 34 % 0.00 in /  0 mm
15:33 62.2 °F /  16.8 °C 34.2 °F /  1.2 °C 29.99 in /  1015.5 hPa West 5.0 mph /  8 km/h 9.2 mph /  14.8 km/h 35 % 0.00 in /  0 mm
15:38 62.4 °F /  16.9 °C 35.8 °F /  2.1 °C 29.99 in /  1015.5 hPa West 2.0 mph /  3.2 km/h 8.1 mph /  13 km/h 37 % 0.00 in /  0 mm
15:44 62.8 °F /  17.1 °C 35.4 °F /  1.9 °C 29.99 in /  1015.5 hPa SW 5.8 mph /  9.3 km/h 9.2 mph /  14.8 km/h 36 % 0.00 in /  0 mm
15:49 62.9 °F /  17.2 °C 34.8 °F /  1.6 °C 29.99 in /  1015.5 hPa West 3.9 mph /  6.3 km/h 8.0 mph /  12.9 km/h 35 % 0.00 in /  0 mm
15:54 63.0 °F /  17.2 °C 34.9 °F /  1.6 °C 29.99 in /  1015.5 hPa West 4.7 mph /  7.6 km/h 8.1 mph /  13 km/h 35 % 0.00 in /  0 mm
15:59 62.9 °F /  17.2 °C 34.1 °F /  1.2 °C 29.99 in /  1015.5 hPa NW 4.4 mph /  7.1 km/h 9.0 mph /  14.5 km/h 34 % 0.00 in /  0 mm
16:04 62.7 °F /  17.1 °C 35.3 °F /  1.8 °C 29.99 in /  1015.5 hPa West 4.4 mph /  7.1 km/h 10.0 mph /  16.1 km/h 36 % 0.01 in /  0.25 mm
16:09 62.6 °F /  17 °C 34.5 °F /  1.4 °C 29.99 in /  1015.5 hPa WSW 5.8 mph /  9.3 km/h 11.5 mph /  18.5 km/h 35 % 0.01 in /  0.25 mm
16:14 62.7 °F /  17.1 °C 34.6 °F /  1.4 °C 29.99 in /  1015.5 hPa West 2.6 mph /  4.2 km/h 4.6 mph /  7.4 km/h 35 % 0.01 in /  0.25 mm
16:19 62.6 °F /  17 °C 33.8 °F /  1 °C 29.99 in /  1015.5 hPa WSW 6.4 mph /  10.3 km/h 9.2 mph /  14.8 km/h 34 % 0.01 in /  0.25 mm
16:24 62.2 °F /  16.8 °C 33.5 °F /  0.8 °C 29.99 in /  1015.5 hPa West 5.4 mph /  8.7 km/h 8.1 mph /  13 km/h 34 % 0.01 in /  0.25 mm
16:29 62.1 °F /  16.7 °C 33.4 °F /  0.8 °C 29.99 in /  1015.5 hPa West 3.1 mph /  5 km/h 6.9 mph /  11.1 km/h 34 % 0.01 in /  0.25 mm
16:34 62.0 °F /  16.7 °C 34.0 °F /  1.1 °C 29.98 in /  1015.1 hPa NW 1.0 mph /  1.6 km/h 2.0 mph /  3.2 km/h 35 % 0.01 in /  0.25 mm
16:39 62.1 °F /  16.7 °C 34.8 °F /  1.6 °C 29.98 in /  1015.1 hPa WSW 1.5 mph /  2.4 km/h 4.0 mph /  6.4 km/h 36 % 0.01 in /  0.25 mm
16:44 62.3 °F /  16.8 °C 34.3 °F /  1.3 °C 29.98 in /  1015.1 hPa West 5.5 mph /  8.9 km/h 9.0 mph /  14.5 km/h 35 % 0.01 in /  0.25 mm
16:49 62.2 °F /  16.8 °C 34.9 °F /  1.6 °C 29.99 in /  1015.5 hPa WNW 4.3 mph /  6.9 km/h 5.8 mph /  9.3 km/h 36 % 0.01 in /  0.25 mm
16:54 62.1 °F /  16.7 °C 34.8 °F /  1.6 °C 29.99 in /  1015.5 hPa NW 4.4 mph /  7.1 km/h 8.1 mph /  13 km/h 36 % 0.01 in /  0.25 mm
16:59 61.6 °F /  16.4 °C 35.1 °F /  1.7 °C 29.99 in /  1015.5 hPa NW 4.8 mph /  7.7 km/h 11.5 mph /  18.5 km/h 37 % 0.01 in /  0.25 mm
17:04 61.2 °F /  16.2 °C 34.7 °F /  1.5 °C 29.99 in /  1015.5 hPa West 2.1 mph /  3.4 km/h 4.6 mph /  7.4 km/h 37 % 0.00 in /  0 mm
17:09 60.9 °F /  16.1 °C 34.4 °F /  1.3 °C 29.99 in /  1015.5 hPa NNW 4.5 mph /  7.2 km/h 5.8 mph /  9.3 km/h 37 % 0.00 in /  0 mm
17:14 60.6 °F /  15.9 °C 34.8 °F /  1.6 °C 29.99 in /  1015.5 hPa NW 4.9 mph /  7.9 km/h 7.0 mph /  11.3 km/h 38 % 0.00 in /  0 mm
17:19 60.3 °F /  15.7 °C 33.9 °F /  1.1 °C 29.99 in /  1015.5 hPa WNW 5.2 mph /  8.4 km/h 10.4 mph /  16.7 km/h 37 % 0.00 in /  0 mm
17:25 59.9 °F /  15.5 °C 34.2 °F /  1.2 °C 29.99 in /  1015.5 hPa NNW 6.2 mph /  10 km/h 10.0 mph /  16.1 km/h 38 % 0.00 in /  0 mm
17:30 59.6 °F /  15.3 °C 34.6 °F /  1.4 °C 29.99 in /  1015.5 hPa NW 5.4 mph /  8.7 km/h 8.1 mph /  13 km/h 39 % 0.00 in /  0 mm
17:35 59.1 °F /  15.1 °C 35.4 °F /  1.9 °C 29.99 in /  1015.5 hPa NNW 4.7 mph /  7.6 km/h 7.0 mph /  11.3 km/h 41 % 0.00 in /  0 mm
17:40 58.5 °F /  14.7 °C 36.1 °F /  2.3 °C 29.99 in /  1015.5 hPa NW 3.2 mph /  5.1 km/h 5.8 mph /  9.3 km/h 43 % 0.00 in /  0 mm
17:45 58.0 °F /  14.4 °C 36.8 °F /  2.7 °C 29.99 in /  1015.5 hPa NE 2.4 mph /  3.9 km/h 4.6 mph /  7.4 km/h 45 % 0.00 in /  0 mm
17:50 57.2 °F /  14 °C 36.6 °F /  2.6 °C 29.99 in /  1015.5 hPa NW 3.0 mph /  4.8 km/h 6.9 mph /  11.1 km/h 46 % 0.00 in /  0 mm
17:55 56.7 °F /  13.7 °C 36.1 °F /  2.3 °C 29.99 in /  1015.5 hPa NW 4.8 mph /  7.7 km/h 4.8 mph /  7.7 km/h 46 % 0.00 in /  0 mm
18:00 56.3 °F /  13.5 °C 35.8 °F /  2.1 °C 30.00 in /  1015.8 hPa NNW 3.8 mph /  6.1 km/h 4.6 mph /  7.4 km/h 46 % 0.00 in /  0 mm
18:05 55.9 °F /  13.3 °C 35.9 °F /  2.2 °C 30.00 in /  1015.8 hPa NNW 1.3 mph /  2.1 km/h 4.6 mph /  7.4 km/h 47 % 0.00 in /  0 mm
18:10 55.7 °F /  13.2 °C 35.8 °F /  2.1 °C 30.00 in /  1015.8 hPa NW 2.5 mph /  4 km/h 3.5 mph /  5.6 km/h 47 % 0.00 in /  0 mm
18:15 55.6 °F /  13.1 °C 35.7 °F /  2.1 °C 30.00 in /  1015.8 hPa NNW 1.6 mph /  2.6 km/h 4.0 mph /  6.4 km/h 47 % 0.00 in /  0 mm
18:20 55.4 °F /  13 °C 36.0 °F /  2.2 °C 30.00 in /  1015.8 hPa NNW 6.4 mph /  10.3 km/h 10.4 mph /  16.7 km/h 48 % 0.00 in /  0 mm
18:25 55.2 °F /  12.9 °C 35.3 °F /  1.8 °C 30.00 in /  1015.8 hPa NW 3.6 mph /  5.8 km/h 9.2 mph /  14.8 km/h 47 % 0.00 in /  0 mm
18:30 55.0 °F /  12.8 °C 34.6 °F /  1.4 °C 30.00 in /  1015.8 hPa NNW 4.1 mph /  6.6 km/h 9.2 mph /  14.8 km/h 46 % 0.00 in /  0 mm
18:35 54.8 °F /  12.7 °C 34.4 °F /  1.3 °C 30.00 in /  1015.8 hPa NW 3.0 mph /  4.8 km/h 5.8 mph /  9.3 km/h 46 % 0.00 in /  0 mm
18:40 54.8 °F /  12.7 °C 34.4 °F /  1.3 °C 30.00 in /  1015.8 hPa WNW 2.9 mph /  4.7 km/h 6.9 mph /  11.1 km/h 46 % 0.00 in /  0 mm
18:45 54.7 °F /  12.6 °C 34.3 °F /  1.3 °C 30.00 in /  1015.8 hPa WNW 2.6 mph /  4.2 km/h 5.8 mph /  9.3 km/h 46 % 0.00 in /  0 mm
18:50 54.6 °F /  12.6 °C 34.8 °F /  1.6 °C 29.99 in /  1015.5 hPa WNW 2.5 mph /  4 km/h 6.0 mph /  9.7 km/h 47 % 0.00 in /  0 mm
18:55 54.5 °F /  12.5 °C 34.7 °F /  1.5 °C 30.00 in /  1015.8 hPa WNW 1.5 mph /  2.4 km/h 3.5 mph /  5.6 km/h 47 % 0.00 in /  0 mm
19:00 54.4 °F /  12.4 °C 34.0 °F /  1.1 °C 30.00 in /  1015.8 hPa NW 4.9 mph /  7.9 km/h 9.2 mph /  14.8 km/h 46 % 0.00 in /  0 mm
19:05 54.3 °F /  12.4 °C 33.9 °F /  1.1 °C 30.00 in /  1015.8 hPa NW 3.9 mph /  6.3 km/h 8.1 mph /  13 km/h 46 % 0.00 in /  0 mm
19:10 54.3 °F /  12.4 °C 33.4 °F /  0.8 °C 30.00 in /  1015.8 hPa WNW 2.6 mph /  4.2 km/h 11.5 mph /  18.5 km/h 45 % 0.00 in /  0 mm
19:15 54.3 °F /  12.4 °C 33.9 °F /  1.1 °C 30.00 in /  1015.8 hPa WNW 1.9 mph /  3.1 km/h 8.1 mph /  13 km/h 46 % 0.00 in /  0 mm
19:20 54.2 °F /  12.3 °C 34.9 °F /  1.6 °C 30.00 in /  1015.8 hPa NNW 2.0 mph /  3.2 km/h 5.8 mph /  9.3 km/h 48 % 0.00 in /  0 mm
19:25 54.0 °F /  12.2 °C 35.3 °F /  1.8 °C 30.00 in /  1015.8 hPa WNW 2.0 mph /  3.2 km/h 4.6 mph /  7.4 km/h 49 % 0.00 in /  0 mm
19:30 53.7 °F /  12.1 °C 34.5 °F /  1.4 °C 30.00 in /  1015.8 hPa West 3.3 mph /  5.3 km/h 4.6 mph /  7.4 km/h 48 % 0.00 in /  0 mm
19:35 53.5 °F /  11.9 °C 33.7 °F /  0.9 °C 30.00 in /  1015.8 hPa WNW 1.6 mph /  2.6 km/h 5.8 mph /  9.3 km/h 47 % 0.00 in /  0 mm
19:40 53.4 °F /  11.9 °C 34.2 °F /  1.2 °C 30.00 in /  1015.8 hPa WNW 1.5 mph /  2.4 km/h 3.5 mph /  5.6 km/h 48 % 0.00 in /  0 mm
19:45 53.2 °F /  11.8 °C 34.5 °F /  1.4 °C 30.00 in /  1015.8 hPa West 2.4 mph /  3.9 km/h 4.6 mph /  7.4 km/h 49 % 0.00 in /  0 mm
19:50 53.1 °F /  11.7 °C 34.9 °F /  1.6 °C 30.01 in /  1016.1 hPa West 0.1 mph /  0.2 km/h 2.3 mph /  3.7 km/h 50 % 0.00 in /  0 mm
19:55 53.1 °F /  11.7 °C 34.9 °F /  1.6 °C 30.00 in /  1015.8 hPa West 1.1 mph /  1.8 km/h 3.5 mph /  5.6 km/h 50 % 0.00 in /  0 mm
20:00 52.9 °F /  11.6 °C 35.2 °F /  1.8 °C 30.00 in /  1015.8 hPa West 0.9 mph /  1.4 km/h 2.0 mph /  3.2 km/h 51 % 0.00 in /  0 mm
20:05 52.7 °F /  11.5 °C 35.1 °F /  1.7 °C 30.00 in /  1015.8 hPa West 0.7 mph /  1.1 km/h 2.3 mph /  3.7 km/h 51 % 0.00 in /  0 mm
20:10 52.4 °F /  11.3 °C 34.8 °F /  1.6 °C 30.01 in /  1016.1 hPa West 1.1 mph /  1.8 km/h 3.5 mph /  5.6 km/h 51 % 0.00 in /  0 mm
20:15 52.2 °F /  11.2 °C 35.1 °F /  1.7 °C 30.01 in /  1016.1 hPa Calm   1.2 mph /  1.9 km/h 52 % 0.00 in /  0 mm
20:20 52.0 °F /  11.1 °C 34.9 °F /  1.6 °C 30.01 in /  1016.1 hPa West 0.4 mph /  0.6 km/h 2.3 mph /  3.7 km/h 52 % 0.00 in /  0 mm
20:25 51.8 °F /  11 °C 34.7 °F /  1.5 °C 30.02 in /  1016.5 hPa West 2.1 mph /  3.4 km/h 3.5 mph /  5.6 km/h 52 % 0.00 in /  0 mm
20:31 51.5 °F /  10.8 °C 34.9 °F /  1.6 °C 30.01 in /  1016.1 hPa West 0.2 mph /  0.3 km/h 3.5 mph /  5.6 km/h 53 % 0.00 in /  0 mm
20:36 51.3 °F /  10.7 °C 34.7 °F /  1.5 °C 30.01 in /  1016.1 hPa West 0.5 mph /  0.8 km/h 1.2 mph /  1.9 km/h 53 % 0.00 in /  0 mm
20:41 51.1 °F /  10.6 °C 35.0 °F /  1.7 °C 30.02 in /  1016.5 hPa West 0.4 mph /  0.6 km/h 1.2 mph /  1.9 km/h 54 % 0.00 in /  0 mm
20:46 50.9 °F /  10.5 °C 34.8 °F /  1.6 °C 30.02 in /  1016.5 hPa West 1.0 mph /  1.6 km/h 1.2 mph /  1.9 km/h 54 % 0.00 in /  0 mm
20:51 50.6 °F /  10.3 °C 35.0 °F /  1.7 °C 30.02 in /  1016.5 hPa West 0.5 mph /  0.8 km/h 2.3 mph /  3.7 km/h 55 % 0.00 in /  0 mm
20:56 50.4 °F /  10.2 °C 35.3 °F /  1.8 °C 30.02 in /  1016.5 hPa West 0.3 mph /  0.5 km/h 2.3 mph /  3.7 km/h 56 % 0.00 in /  0 mm
21:01 50.1 °F /  10.1 °C 35.0 °F /  1.7 °C 30.02 in /  1016.5 hPa West 0.8 mph /  1.3 km/h 2.3 mph /  3.7 km/h 56 % 0.00 in /  0 mm
21:06 49.9 °F /  9.9 °C 34.8 °F /  1.6 °C 30.02 in /  1016.5 hPa West 1.3 mph /  2.1 km/h 2.3 mph /  3.7 km/h 56 % 0.00 in /  0 mm
21:11 49.6 °F /  9.8 °C 34.5 °F /  1.4 °C 30.03 in /  1016.8 hPa West 2.1 mph /  3.4 km/h 3.5 mph /  5.6 km/h 56 % 0.00 in /  0 mm
21:16 49.4 °F /  9.7 °C 34.3 °F /  1.3 °C 30.03 in /  1016.8 hPa West 1.6 mph /  2.6 km/h 3.5 mph /  5.6 km/h 56 % 0.00 in /  0 mm
21:21 49.3 °F /  9.6 °C 34.7 °F /  1.5 °C 30.03 in /  1016.8 hPa West 1.7 mph /  2.7 km/h 3.5 mph /  5.6 km/h 57 % 0.00 in /  0 mm
21:26 49.2 °F /  9.6 °C 35.0 °F /  1.7 °C 30.03 in /  1016.8 hPa West 0.3 mph /  0.5 km/h 2.0 mph /  3.2 km/h 58 % 0.00 in /  0 mm
21:31 49.0 °F /  9.4 °C 34.9 °F /  1.6 °C 30.03 in /  1016.8 hPa West 1.3 mph /  2.1 km/h 3.5 mph /  5.6 km/h 58 % 0.00 in /  0 mm
21:36 48.8 °F /  9.3 °C 35.1 °F /  1.7 °C 30.03 in /  1016.8 hPa Calm   1.2 mph /  1.9 km/h 59 % 0.00 in /  0 mm
21:41 48.6 °F /  9.2 °C 34.0 °F /  1.1 °C 30.04 in /  1017.2 hPa West 0.9 mph /  1.4 km/h 2.3 mph /  3.7 km/h 57 % 0.00 in /  0 mm
21:46 48.5 °F /  9.2 °C 33.9 °F /  1.1 °C 30.04 in /  1017.2 hPa West 1.5 mph /  2.4 km/h 3.5 mph /  5.6 km/h 57 % 0.00 in /  0 mm
21:51 48.4 °F /  9.1 °C 34.3 °F /  1.3 °C 30.04 in /  1017.2 hPa West 1.1 mph /  1.8 km/h 3.5 mph /  5.6 km/h 58 % 0.00 in /  0 mm
21:56 48.3 °F /  9.1 °C 34.2 °F /  1.2 °C 30.04 in /  1017.2 hPa WSW 3.2 mph /  5.1 km/h 5.0 mph /  8 km/h 58 % 0.00 in /  0 mm
22:01 48.3 °F /  9.1 °C 34.2 °F /  1.2 °C 30.04 in /  1017.2 hPa WSW 1.3 mph /  2.1 km/h 2.3 mph /  3.7 km/h 58 % 0.00 in /  0 mm
22:06 48.3 °F /  9.1 °C 34.2 °F /  1.2 °C 30.04 in /  1017.2 hPa WSW 3.8 mph /  6.1 km/h 6.9 mph /  11.1 km/h 58 % 0.00 in /  0 mm
22:11 48.5 °F /  9.2 °C 33.9 °F /  1.1 °C 30.04 in /  1017.2 hPa West 2.6 mph /  4.2 km/h 4.6 mph /  7.4 km/h 57 % 0.00 in /  0 mm
22:16 48.8 °F /  9.3 °C 33.8 °F /  1 °C 30.04 in /  1017.2 hPa West 2.4 mph /  3.9 km/h 4.6 mph /  7.4 km/h 56 % 0.00 in /  0 mm
22:21 49.1 °F /  9.5 °C 34.1 °F /  1.2 °C 30.04 in /  1017.2 hPa West 2.3 mph /  3.7 km/h 7.0 mph /  11.3 km/h 56 % 0.00 in /  0 mm
22:26 49.5 °F /  9.7 °C 34.4 °F /  1.3 °C 30.04 in /  1017.2 hPa WSW 2.7 mph /  4.3 km/h 3.5 mph /  5.6 km/h 56 % 0.00 in /  0 mm
22:31 49.7 °F /  9.8 °C 34.6 °F /  1.4 °C 30.04 in /  1017.2 hPa West 2.1 mph /  3.4 km/h 4.0 mph /  6.4 km/h 56 % 0.00 in /  0 mm
22:36 50.0 °F /  10 °C 34.5 °F /  1.4 °C 30.04 in /  1017.2 hPa WNW 4.8 mph /  7.7 km/h 8.1 mph /  13 km/h 55 % 0.00 in /  0 mm
22:41 50.4 °F /  10.2 °C 34.4 °F /  1.3 °C 30.04 in /  1017.2 hPa WNW 2.6 mph /  4.2 km/h 8.1 mph /  13 km/h 54 % 0.00 in /  0 mm
22:46 50.8 °F /  10.4 °C 34.3 °F /  1.3 °C 30.04 in /  1017.2 hPa WNW 3.1 mph /  5 km/h 5.8 mph /  9.3 km/h 53 % 0.00 in /  0 mm
22:51 51.2 °F /  10.7 °C 34.2 °F /  1.2 °C 30.04 in /  1017.2 hPa WNW 4.6 mph /  7.4 km/h 6.9 mph /  11.1 km/h 52 % 0.00 in /  0 mm
22:56 51.5 °F /  10.8 °C 34.0 °F /  1.1 °C 30.05 in /  1017.5 hPa West 2.5 mph /  4 km/h 4.6 mph /  7.4 km/h 51 % 0.00 in /  0 mm
23:01 51.7 °F /  10.9 °C 34.1 °F /  1.2 °C 30.05 in /  1017.5 hPa NW 5.2 mph /  8.4 km/h 6.9 mph /  11.1 km/h 51 % 0.00 in /  0 mm
23:06 51.8 °F /  11 °C 36.1 °F /  2.3 °C 30.05 in /  1017.5 hPa North 5.1 mph /  8.2 km/h 9.2 mph /  14.8 km/h 55 % 0.00 in /  0 mm
23:11 51.6 °F /  10.9 °C 36.9 °F /  2.7 °C 30.06 in /  1017.8 hPa North 1.8 mph /  2.9 km/h 4.6 mph /  7.4 km/h 57 % 0.00 in /  0 mm
23:16 51.3 °F /  10.7 °C 36.6 °F /  2.6 °C 30.05 in /  1017.5 hPa NW 1.9 mph /  3.1 km/h 3.0 mph /  4.8 km/h 57 % 0.00 in /  0 mm
23:21 50.9 °F /  10.5 °C 36.2 °F /  2.3 °C 30.05 in /  1017.5 hPa West 3.1 mph /  5 km/h 4.0 mph /  6.4 km/h 57 % 0.00 in /  0 mm
23:26 50.4 °F /  10.2 °C 36.2 °F /  2.3 °C 30.05 in /  1017.5 hPa West 2.0 mph /  3.2 km/h 3.5 mph /  5.6 km/h 58 % 0.00 in /  0 mm
23:31 50.0 °F /  10 °C 35.8 °F /  2.1 °C 30.06 in /  1017.8 hPa West 1.4 mph /  2.3 km/h 2.3 mph /  3.7 km/h 58 % 0.00 in /  0 mm
23:36 49.7 °F /  9.8 °C 35.9 °F /  2.2 °C 30.05 in /  1017.5 hPa West 1.1 mph /  1.8 km/h 3.5 mph /  5.6 km/h 59 % 0.00 in /  0 mm
23:41 49.3 °F /  9.6 °C 36.0 °F /  2.2 °C 30.06 in /  1017.8 hPa West 0.6 mph /  1 km/h 2.3 mph /  3.7 km/h 60 % 0.00 in /  0 mm
23:46 49.0 °F /  9.4 °C 35.7 °F /  2.1 °C 30.06 in /  1017.8 hPa West 1.0 mph /  1.6 km/h 2.3 mph /  3.7 km/h 60 % 0.00 in /  0 mm
23:51 48.7 °F /  9.3 °C 35.8 °F /  2.1 °C 30.05 in /  1017.5 hPa Calm     61 % 0.00 in /  0 mm
23:56 48.4 °F /  9.1 °C 36.0 °F /  2.2 °C 30.06 in /  1017.8 hPa Calm     62 % 0.00 in /  0 mm
Crab Meadow Weather
Compliments of Weather Underground - 3 mb

Script developed by  Jim McMurry - jmcmurry@mwt.net Adapted for the template by  Wim van der Kuil - Leuven-Template.eu

Astronomy: Venus rotates east to west.